sensor_id;sensor_type;location;lat;lon;timestamp;pressure;altitude;pressure_sealevel;temperature
10598;BMP180;5346;48.766;8.674;2024-03-02T00:01:57;92846.00;;;4.10
10598;BMP180;5346;48.766;8.674;2024-03-02T00:04:33;92847.00;;;3.90
10598;BMP180;5346;48.766;8.674;2024-03-02T00:07:08;92849.00;;;3.90
10598;BMP180;5346;48.766;8.674;2024-03-02T00:09:44;92847.00;;;3.90
10598;BMP180;5346;48.766;8.674;2024-03-02T00:12:15;92855.00;;;3.90
10598;BMP180;5346;48.766;8.674;2024-03-02T00:14:50;92856.00;;;3.90
10598;BMP180;5346;48.766;8.674;2024-03-02T00:17:25;92857.00;;;4.10
10598;BMP180;5346;48.766;8.674;2024-03-02T00:20:04;92853.00;;;3.90
10598;BMP180;5346;48.766;8.674;2024-03-02T00:22:37;92854.00;;;3.70
10598;BMP180;5346;48.766;8.674;2024-03-02T00:25:14;92862.00;;;3.70
10598;BMP180;5346;48.766;8.674;2024-03-02T00:27:48;92859.00;;;3.70
10598;BMP180;5346;48.766;8.674;2024-03-02T00:30:57;92859.00;;;3.80
10598;BMP180;5346;48.766;8.674;2024-03-02T00:33:32;92858.00;;;3.80
10598;BMP180;5346;48.766;8.674;2024-03-02T00:36:08;92851.00;;;3.60
10598;BMP180;5346;48.766;8.674;2024-03-02T00:38:50;92855.00;;;3.80
10598;BMP180;5346;48.766;8.674;2024-03-02T00:41:31;92860.00;;;3.70
10598;BMP180;5346;48.766;8.674;2024-03-02T00:44:05;92854.00;;;3.70
10598;BMP180;5346;48.766;8.674;2024-03-02T00:46:43;92855.00;;;3.50
10598;BMP180;5346;48.766;8.674;2024-03-02T00:49:24;92857.00;;;3.70
10598;BMP180;5346;48.766;8.674;2024-03-02T00:51:59;92857.00;;;3.50
10598;BMP180;5346;48.766;8.674;2024-03-02T00:54:27;92862.00;;;3.50
10598;BMP180;5346;48.766;8.674;2024-03-02T00:57:03;92858.00;;;3.70
10598;BMP180;5346;48.766;8.674;2024-03-02T00:59:31;92858.00;;;3.80
10598;BMP180;5346;48.766;8.674;2024-03-02T01:02:05;92853.00;;;3.70
10598;BMP180;5346;48.766;8.674;2024-03-02T01:04:33;92850.00;;;3.80
10598;BMP180;5346;48.766;8.674;2024-03-02T01:07:08;92843.00;;;3.80
10598;BMP180;5346;48.766;8.674;2024-03-02T01:09:37;92852.00;;;3.80
10598;BMP180;5346;48.766;8.674;2024-03-02T01:12:05;92860.00;;;3.80
10598;BMP180;5346;48.766;8.674;2024-03-02T01:14:39;92862.00;;;3.70
10598;BMP180;5346;48.766;8.674;2024-03-02T01:17:20;92853.00;;;3.50
10598;BMP180;5346;48.766;8.674;2024-03-02T01:19:54;92862.00;;;3.70
10598;BMP180;5346;48.766;8.674;2024-03-02T01:22:28;92859.00;;;3.80
10598;BMP180;5346;48.766;8.674;2024-03-02T01:25:03;92849.00;;;3.70
10598;BMP180;5346;48.766;8.674;2024-03-02T01:27:38;92856.00;;;3.70
10598;BMP180;5346;48.766;8.674;2024-03-02T01:30:17;92852.00;;;3.70
10598;BMP180;5346;48.766;8.674;2024-03-02T01:32:45;92845.00;;;3.70
10598;BMP180;5346;48.766;8.674;2024-03-02T01:35:21;92852.00;;;3.70
10598;BMP180;5346;48.766;8.674;2024-03-02T01:37:55;92846.00;;;3.70
10598;BMP180;5346;48.766;8.674;2024-03-02T01:40:23;92852.00;;;3.70
10598;BMP180;5346;48.766;8.674;2024-03-02T01:43:00;92847.00;;;3.50
10598;BMP180;5346;48.766;8.674;2024-03-02T01:45:32;92846.00;;;3.70
10598;BMP180;5346;48.766;8.674;2024-03-02T01:48:08;92847.00;;;3.70
10598;BMP180;5346;48.766;8.674;2024-03-02T01:50:36;92859.00;;;3.80
10598;BMP180;5346;48.766;8.674;2024-03-02T01:53:10;92855.00;;;3.80
10598;BMP180;5346;48.766;8.674;2024-03-02T01:55:38;92849.00;;;3.70
10598;BMP180;5346;48.766;8.674;2024-03-02T01:58:12;92851.00;;;3.80
10598;BMP180;5346;48.766;8.674;2024-03-02T02:00:50;92840.00;;;3.70
10598;BMP180;5346;48.766;8.674;2024-03-02T02:03:18;92838.00;;;3.80
10598;BMP180;5346;48.766;8.674;2024-03-02T02:05:46;92843.00;;;3.80
10598;BMP180;5346;48.766;8.674;2024-03-02T02:08:21;92844.00;;;3.80
10598;BMP180;5346;48.766;8.674;2024-03-02T02:10:49;92843.00;;;3.80
10598;BMP180;5346;48.766;8.674;2024-03-02T02:13:17;92836.00;;;3.90
10598;BMP180;5346;48.766;8.674;2024-03-02T02:15:52;92829.00;;;3.90
10598;BMP180;5346;48.766;8.674;2024-03-02T02:18:33;92826.00;;;3.90
10598;BMP180;5346;48.766;8.674;2024-03-02T02:21:08;92830.00;;;3.90
10598;BMP180;5346;48.766;8.674;2024-03-02T02:23:45;92825.00;;;3.90
10598;BMP180;5346;48.766;8.674;2024-03-02T02:26:22;92830.00;;;3.70
10598;BMP180;5346;48.766;8.674;2024-03-02T02:28:59;92831.00;;;3.80
10598;BMP180;5346;48.766;8.674;2024-03-02T02:31:40;92825.00;;;3.80
10598;BMP180;5346;48.766;8.674;2024-03-02T02:34:15;92822.00;;;3.90
10598;BMP180;5346;48.766;8.674;2024-03-02T02:36:51;92827.00;;;3.80
10598;BMP180;5346;48.766;8.674;2024-03-02T02:39:25;92819.00;;;3.90
10598;BMP180;5346;48.766;8.674;2024-03-02T02:41:53;92813.00;;;3.90
10598;BMP180;5346;48.766;8.674;2024-03-02T02:44:30;92813.00;;;3.80
10598;BMP180;5346;48.766;8.674;2024-03-02T02:47:13;92810.00;;;3.90
10598;BMP180;5346;48.766;8.674;2024-03-02T02:49:47;92800.00;;;4.00
10598;BMP180;5346;48.766;8.674;2024-03-02T02:52:21;92806.00;;;3.90
10598;BMP180;5346;48.766;8.674;2024-03-02T02:54:49;92802.00;;;3.80
10598;BMP180;5346;48.766;8.674;2024-03-02T02:57:23;92798.00;;;3.80
10598;BMP180;5346;48.766;8.674;2024-03-02T02:59:51;92810.00;;;3.90
10598;BMP180;5346;48.766;8.674;2024-03-02T03:02:28;92799.00;;;3.80
10598;BMP180;5346;48.766;8.674;2024-03-02T03:04:56;92799.00;;;3.80
10598;BMP180;5346;48.766;8.674;2024-03-02T03:07:24;92801.00;;;3.70
10598;BMP180;5346;48.766;8.674;2024-03-02T03:09:59;92803.00;;;3.60
10598;BMP180;5346;48.766;8.674;2024-03-02T03:12:34;92814.00;;;3.30
10598;BMP180;5346;48.766;8.674;2024-03-02T03:15:05;92813.00;;;3.40
10598;BMP180;5346;48.766;8.674;2024-03-02T03:17:41;92807.00;;;3.30
10598;BMP180;5346;48.766;8.674;2024-03-02T03:20:22;92802.00;;;3.20
10598;BMP180;5346;48.766;8.674;2024-03-02T03:22:57;92793.00;;;3.20
10598;BMP180;5346;48.766;8.674;2024-03-02T03:25:25;92795.00;;;3.40
10598;BMP180;5346;48.766;8.674;2024-03-02T03:28:00;92792.00;;;3.00
10598;BMP180;5346;48.766;8.674;2024-03-02T03:30:29;92806.00;;;3.00
10598;BMP180;5346;48.766;8.674;2024-03-02T03:33:03;92797.00;;;2.90
10598;BMP180;5346;48.766;8.674;2024-03-02T03:35:39;92803.00;;;2.80
10598;BMP180;5346;48.766;8.674;2024-03-02T03:38:13;92799.00;;;3.00
10598;BMP180;5346;48.766;8.674;2024-03-02T03:40:41;92811.00;;;3.00
10598;BMP180;5346;48.766;8.674;2024-03-02T03:43:15;92799.00;;;3.20
10598;BMP180;5346;48.766;8.674;2024-03-02T03:45:43;92806.00;;;3.30
10598;BMP180;5346;48.766;8.674;2024-03-02T03:48:10;92804.00;;;3.20
10598;BMP180;5346;48.766;8.674;2024-03-02T03:50:44;92804.00;;;3.10
10598;BMP180;5346;48.766;8.674;2024-03-02T03:53:12;92812.00;;;3.50
10598;BMP180;5346;48.766;8.674;2024-03-02T03:55:47;92800.00;;;3.30
10598;BMP180;5346;48.766;8.674;2024-03-02T03:58:16;92808.00;;;3.50
10598;BMP180;5346;48.766;8.674;2024-03-02T04:00:52;92794.00;;;3.40
10598;BMP180;5346;48.766;8.674;2024-03-02T04:03:20;92804.00;;;3.60
10598;BMP180;5346;48.766;8.674;2024-03-02T04:05:48;92806.00;;;3.50
10598;BMP180;5346;48.766;8.674;2024-03-02T04:08:22;92804.00;;;3.60
10598;BMP180;5346;48.766;8.674;2024-03-02T04:10:50;92797.00;;;3.70
10598;BMP180;5346;48.766;8.674;2024-03-02T04:13:27;92803.00;;;3.70
10598;BMP180;5346;48.766;8.674;2024-03-02T04:16:02;92802.00;;;3.60
10598;BMP180;5346;48.766;8.674;2024-03-02T04:18:37;92807.00;;;3.80
10598;BMP180;5346;48.766;8.674;2024-03-02T04:21:11;92808.00;;;3.60
10598;BMP180;5346;48.766;8.674;2024-03-02T04:23:45;92805.00;;;3.80
10598;BMP180;5346;48.766;8.674;2024-03-02T04:26:19;92802.00;;;3.80
10598;BMP180;5346;48.766;8.674;2024-03-02T04:28:49;92801.00;;;3.80
10598;BMP180;5346;48.766;8.674;2024-03-02T04:31:23;92801.00;;;3.60
10598;BMP180;5346;48.766;8.674;2024-03-02T04:33:57;92806.00;;;3.70
10598;BMP180;5346;48.766;8.674;2024-03-02T04:36:25;92806.00;;;3.80
10598;BMP180;5346;48.766;8.674;2024-03-02T04:38:59;92802.00;;;4.00
10598;BMP180;5346;48.766;8.674;2024-03-02T04:41:33;92806.00;;;4.20
10598;BMP180;5346;48.766;8.674;2024-03-02T04:44:07;92800.00;;;4.10
10598;BMP180;5346;48.766;8.674;2024-03-02T04:46:35;92804.00;;;4.00
10598;BMP180;5346;48.766;8.674;2024-03-02T04:49:09;92808.00;;;3.80
10598;BMP180;5346;48.766;8.674;2024-03-02T04:51:43;92803.00;;;3.90
10598;BMP180;5346;48.766;8.674;2024-03-02T04:54:17;92802.00;;;3.80
10598;BMP180;5346;48.766;8.674;2024-03-02T04:56:45;92818.00;;;3.80
10598;BMP180;5346;48.766;8.674;2024-03-02T04:59:18;92816.00;;;3.90
10598;BMP180;5346;48.766;8.674;2024-03-02T05:01:52;92815.00;;;3.90
10598;BMP180;5346;48.766;8.674;2024-03-02T05:04:20;92813.00;;;4.00
10598;BMP180;5346;48.766;8.674;2024-03-02T05:06:48;92819.00;;;3.90
10598;BMP180;5346;48.766;8.674;2024-03-02T05:09:26;92828.00;;;3.90
10598;BMP180;5346;48.766;8.674;2024-03-02T05:11:54;92817.00;;;3.90
10598;BMP180;5346;48.766;8.674;2024-03-02T05:14:46;92824.00;;;3.70
10598;BMP180;5346;48.766;8.674;2024-03-02T05:17:27;92825.00;;;3.70
10598;BMP180;5346;48.766;8.674;2024-03-02T05:20:02;92825.00;;;3.70
10598;BMP180;5346;48.766;8.674;2024-03-02T05:22:31;92823.00;;;3.60
10598;BMP180;5346;48.766;8.674;2024-03-02T05:25:06;92826.00;;;3.60
10598;BMP180;5346;48.766;8.674;2024-03-02T05:27:34;92826.00;;;3.70
10598;BMP180;5346;48.766;8.674;2024-03-02T05:30:09;92822.00;;;3.90
10598;BMP180;5346;48.766;8.674;2024-03-02T05:32:43;92830.00;;;3.90
10598;BMP180;5346;48.766;8.674;2024-03-02T05:35:18;92817.00;;;3.90
10598;BMP180;5346;48.766;8.674;2024-03-02T05:37:54;92825.00;;;4.00
10598;BMP180;5346;48.766;8.674;2024-03-02T05:40:21;92828.00;;;4.10
10598;BMP180;5346;48.766;8.674;2024-03-02T05:42:51;92830.00;;;4.10
10598;BMP180;5346;48.766;8.674;2024-03-02T05:45:25;92831.00;;;4.00
10598;BMP180;5346;48.766;8.674;2024-03-02T05:47:54;92821.00;;;4.20
10598;BMP180;5346;48.766;8.674;2024-03-02T05:50:34;92829.00;;;4.20
10598;BMP180;5346;48.766;8.674;2024-03-02T05:53:01;92830.00;;;4.20
10598;BMP180;5346;48.766;8.674;2024-03-02T05:55:36;92838.00;;;4.20
10598;BMP180;5346;48.766;8.674;2024-03-02T05:58:04;92825.00;;;4.10
10598;BMP180;5346;48.766;8.674;2024-03-02T06:00:57;92830.00;;;4.00
10598;BMP180;5346;48.766;8.674;2024-03-02T06:03:25;92825.00;;;4.00
10598;BMP180;5346;48.766;8.674;2024-03-02T06:05:59;92822.00;;;4.20
10598;BMP180;5346;48.766;8.674;2024-03-02T06:08:27;92836.00;;;4.00
10598;BMP180;5346;48.766;8.674;2024-03-02T06:11:01;92830.00;;;4.00
10598;BMP180;5346;48.766;8.674;2024-03-02T06:13:39;92830.00;;;4.00
10598;BMP180;5346;48.766;8.674;2024-03-02T06:16:15;92834.00;;;3.80
10598;BMP180;5346;48.766;8.674;2024-03-02T06:19:03;92833.00;;;3.90
10598;BMP180;5346;48.766;8.674;2024-03-02T06:21:30;92833.00;;;3.80
10598;BMP180;5346;48.766;8.674;2024-03-02T06:24:04;92833.00;;;3.90
10598;BMP180;5346;48.766;8.674;2024-03-02T06:26:39;92830.00;;;3.90
10598;BMP180;5346;48.766;8.674;2024-03-02T06:29:13;92831.00;;;3.80
10598;BMP180;5346;48.766;8.674;2024-03-02T06:31:41;92831.00;;;4.10
10598;BMP180;5346;48.766;8.674;2024-03-02T06:34:20;92834.00;;;4.20
10598;BMP180;5346;48.766;8.674;2024-03-02T06:36:49;92830.00;;;4.30
10598;BMP180;5346;48.766;8.674;2024-03-02T06:39:23;92827.00;;;4.40
10598;BMP180;5346;48.766;8.674;2024-03-02T06:41:57;92833.00;;;4.50
10598;BMP180;5346;48.766;8.674;2024-03-02T06:44:32;92835.00;;;4.50
10598;BMP180;5346;48.766;8.674;2024-03-02T06:47:06;92830.00;;;4.60
10598;BMP180;5346;48.766;8.674;2024-03-02T06:49:42;92830.00;;;4.70
10598;BMP180;5346;48.766;8.674;2024-03-02T06:52:09;92826.00;;;4.60
10598;BMP180;5346;48.766;8.674;2024-03-02T06:54:43;92832.00;;;4.50
10598;BMP180;5346;48.766;8.674;2024-03-02T06:57:11;92823.00;;;4.60
10598;BMP180;5346;48.766;8.674;2024-03-02T06:59:45;92830.00;;;4.50
10598;BMP180;5346;48.766;8.674;2024-03-02T07:02:13;92831.00;;;4.50
10598;BMP180;5346;48.766;8.674;2024-03-02T07:04:40;92831.00;;;4.60
10598;BMP180;5346;48.766;8.674;2024-03-02T07:07:17;92837.00;;;4.60
10598;BMP180;5346;48.766;8.674;2024-03-02T07:09:54;92841.00;;;4.60
10598;BMP180;5346;48.766;8.674;2024-03-02T07:12:22;92838.00;;;4.40
10598;BMP180;5346;48.766;8.674;2024-03-02T07:14:58;92848.00;;;4.50
10598;BMP180;5346;48.766;8.674;2024-03-02T07:17:38;92849.00;;;4.40
10598;BMP180;5346;48.766;8.674;2024-03-02T07:20:23;92845.00;;;4.60
10598;BMP180;5346;48.766;8.674;2024-03-02T07:22:57;92844.00;;;4.60
10598;BMP180;5346;48.766;8.674;2024-03-02T07:25:25;92842.00;;;4.60
10598;BMP180;5346;48.766;8.674;2024-03-02T07:28:09;92841.00;;;4.70
10598;BMP180;5346;48.766;8.674;2024-03-02T07:30:44;92834.00;;;4.90
10598;BMP180;5346;48.766;8.674;2024-03-02T07:33:23;92837.00;;;5.70
10598;BMP180;5346;48.766;8.674;2024-03-02T07:35:54;92832.00;;;6.40
10598;BMP180;5346;48.766;8.674;2024-03-02T07:38:34;92834.00;;;6.70
10598;BMP180;5346;48.766;8.674;2024-03-02T07:41:10;92835.00;;;7.10
10598;BMP180;5346;48.766;8.674;2024-03-02T07:43:45;92830.00;;;7.20
10598;BMP180;5346;48.766;8.674;2024-03-02T07:46:19;92839.00;;;7.40
10598;BMP180;5346;48.766;8.674;2024-03-02T07:48:47;92828.00;;;7.30
10598;BMP180;5346;48.766;8.674;2024-03-02T07:51:24;92835.00;;;7.50
10598;BMP180;5346;48.766;8.674;2024-03-02T07:53:53;92830.00;;;8.00
10598;BMP180;5346;48.766;8.674;2024-03-02T07:56:27;92831.00;;;8.30
10598;BMP180;5346;48.766;8.674;2024-03-02T07:59:04;92829.00;;;8.40
10598;BMP180;5346;48.766;8.674;2024-03-02T08:01:38;92828.00;;;8.40
10598;BMP180;5346;48.766;8.674;2024-03-02T08:04:13;92838.00;;;8.70
10598;BMP180;5346;48.766;8.674;2024-03-02T08:06:46;92835.00;;;8.60
10598;BMP180;5346;48.766;8.674;2024-03-02T08:09:21;92839.00;;;9.20
10598;BMP180;5346;48.766;8.674;2024-03-02T08:11:48;92835.00;;;9.30
10598;BMP180;5346;48.766;8.674;2024-03-02T08:14:29;92830.00;;;9.70
10598;BMP180;5346;48.766;8.674;2024-03-02T08:16:57;92834.00;;;9.80
10598;BMP180;5346;48.766;8.674;2024-03-02T08:19:36;92838.00;;;9.70
10598;BMP180;5346;48.766;8.674;2024-03-02T08:22:20;92843.00;;;9.90
10598;BMP180;5346;48.766;8.674;2024-03-02T08:24:55;92845.00;;;9.80
10598;BMP180;5346;48.766;8.674;2024-03-02T08:27:30;92837.00;;;10.00
10598;BMP180;5346;48.766;8.674;2024-03-02T08:30:06;92840.00;;;10.20
10598;BMP180;5346;48.766;8.674;2024-03-02T08:32:42;92833.00;;;10.10
10598;BMP180;5346;48.766;8.674;2024-03-02T08:35:16;92836.00;;;10.30
10598;BMP180;5346;48.766;8.674;2024-03-02T08:37:50;92830.00;;;10.60
10598;BMP180;5346;48.766;8.674;2024-03-02T08:40:24;92834.00;;;10.10
10598;BMP180;5346;48.766;8.674;2024-03-02T08:42:58;92834.00;;;10.90
10598;BMP180;5346;48.766;8.674;2024-03-02T08:45:32;92835.00;;;11.00
10598;BMP180;5346;48.766;8.674;2024-03-02T08:48:02;92843.00;;;11.10
10598;BMP180;5346;48.766;8.674;2024-03-02T08:50:36;92834.00;;;11.70
10598;BMP180;5346;48.766;8.674;2024-03-02T08:53:04;92836.00;;;11.30
10598;BMP180;5346;48.766;8.674;2024-03-02T08:55:32;92838.00;;;11.40
10598;BMP180;5346;48.766;8.674;2024-03-02T08:58:06;92836.00;;;11.20
10598;BMP180;5346;48.766;8.674;2024-03-02T09:00:34;92842.00;;;10.70
10598;BMP180;5346;48.766;8.674;2024-03-02T09:03:09;92834.00;;;10.10
10598;BMP180;5346;48.766;8.674;2024-03-02T09:05:36;92841.00;;;10.60
10598;BMP180;5346;48.766;8.674;2024-03-02T09:08:04;92844.00;;;10.50
10598;BMP180;5346;48.766;8.674;2024-03-02T09:10:38;92838.00;;;11.30
10598;BMP180;5346;48.766;8.674;2024-03-02T09:13:07;92843.00;;;10.20
10598;BMP180;5346;48.766;8.674;2024-03-02T09:15:42;92850.00;;;10.50
10598;BMP180;5346;48.766;8.674;2024-03-02T09:18:23;92848.00;;;11.00
10598;BMP180;5346;48.766;8.674;2024-03-02T09:20:57;92844.00;;;11.10
10598;BMP180;5346;48.766;8.674;2024-03-02T09:23:25;92844.00;;;10.90
10598;BMP180;5346;48.766;8.674;2024-03-02T09:25:53;92841.00;;;12.00
10598;BMP180;5346;48.766;8.674;2024-03-02T09:28:26;92835.00;;;12.60
10598;BMP180;5346;48.766;8.674;2024-03-02T09:30:54;92836.00;;;12.90
10598;BMP180;5346;48.766;8.674;2024-03-02T09:33:27;92842.00;;;12.30
10598;BMP180;5346;48.766;8.674;2024-03-02T09:36:01;92841.00;;;12.00
10598;BMP180;5346;48.766;8.674;2024-03-02T09:38:31;92835.00;;;13.20
10598;BMP180;5346;48.766;8.674;2024-03-02T09:41:05;92831.00;;;14.00
10598;BMP180;5346;48.766;8.674;2024-03-02T09:43:34;92833.00;;;14.40
10598;BMP180;5346;48.766;8.674;2024-03-02T09:46:02;92830.00;;;14.40
10598;BMP180;5346;48.766;8.674;2024-03-02T09:48:37;92832.00;;;13.20
10598;BMP180;5346;48.766;8.674;2024-03-02T09:51:05;92830.00;;;13.60
10598;BMP180;5346;48.766;8.674;2024-03-02T09:53:40;92825.00;;;14.60
10598;BMP180;5346;48.766;8.674;2024-03-02T09:56:07;92821.00;;;15.40
10598;BMP180;5346;48.766;8.674;2024-03-02T09:58:41;92837.00;;;14.30
10598;BMP180;5346;48.766;8.674;2024-03-02T10:01:17;92824.00;;;13.20
10598;BMP180;5346;48.766;8.674;2024-03-02T10:03:45;92822.00;;;14.00
10598;BMP180;5346;48.766;8.674;2024-03-02T10:06:28;92830.00;;;14.80
10598;BMP180;5346;48.766;8.674;2024-03-02T10:08:56;92830.00;;;14.00
10598;BMP180;5346;48.766;8.674;2024-03-02T10:11:31;92830.00;;;14.30
10598;BMP180;5346;48.766;8.674;2024-03-02T10:14:11;92827.00;;;14.90
10598;BMP180;5346;48.766;8.674;2024-03-02T10:16:45;92829.00;;;14.10
10598;BMP180;5346;48.766;8.674;2024-03-02T10:19:24;92822.00;;;14.60
10598;BMP180;5346;48.766;8.674;2024-03-02T10:22:11;92818.00;;;14.70
10598;BMP180;5346;48.766;8.674;2024-03-02T10:24:45;92822.00;;;14.00
10598;BMP180;5346;48.766;8.674;2024-03-02T10:27:18;92834.00;;;13.50
10598;BMP180;5346;48.766;8.674;2024-03-02T10:29:56;92814.00;;;13.20
10598;BMP180;5346;48.766;8.674;2024-03-02T10:32:24;92827.00;;;13.20
10598;BMP180;5346;48.766;8.674;2024-03-02T10:34:58;92824.00;;;15.00
10598;BMP180;5346;48.766;8.674;2024-03-02T10:37:29;92817.00;;;15.20
10598;BMP180;5346;48.766;8.674;2024-03-02T10:40:06;92818.00;;;14.20
10598;BMP180;5346;48.766;8.674;2024-03-02T10:42:37;92820.00;;;12.70
10598;BMP180;5346;48.766;8.674;2024-03-02T10:45:12;92820.00;;;15.10
10598;BMP180;5346;48.766;8.674;2024-03-02T10:47:44;92825.00;;;14.90
10598;BMP180;5346;48.766;8.674;2024-03-02T10:50:20;92816.00;;;14.90
10598;BMP180;5346;48.766;8.674;2024-03-02T10:52:48;92816.00;;;13.40
10598;BMP180;5346;48.766;8.674;2024-03-02T10:55:22;92819.00;;;14.90
10598;BMP180;5346;48.766;8.674;2024-03-02T10:57:55;92808.00;;;15.60
10598;BMP180;5346;48.766;8.674;2024-03-02T11:00:33;92806.00;;;14.90
10598;BMP180;5346;48.766;8.674;2024-03-02T11:03:09;92801.00;;;15.40
10598;BMP180;5346;48.766;8.674;2024-03-02T11:05:45;92800.00;;;14.90
10598;BMP180;5346;48.766;8.674;2024-03-02T11:08:21;92797.00;;;13.90
10598;BMP180;5346;48.766;8.674;2024-03-02T11:10:58;92798.00;;;15.20
10598;BMP180;5346;48.766;8.674;2024-03-02T11:13:39;92806.00;;;15.30
10598;BMP180;5346;48.766;8.674;2024-03-02T11:16:36;92802.00;;;15.50
10598;BMP180;5346;48.766;8.674;2024-03-02T11:19:18;92795.00;;;16.20
10598;BMP180;5346;48.766;8.674;2024-03-02T11:21:52;92783.00;;;14.70
10598;BMP180;5346;48.766;8.674;2024-03-02T11:27:02;92778.00;;;16.70
10598;BMP180;5346;48.766;8.674;2024-03-02T11:29:49;92779.00;;;15.50
10598;BMP180;5346;48.766;8.674;2024-03-02T11:32:23;92769.00;;;16.70
10598;BMP180;5346;48.766;8.674;2024-03-02T11:34:57;92772.00;;;15.90
10598;BMP180;5346;48.766;8.674;2024-03-02T11:37:31;92773.00;;;15.90
10598;BMP180;5346;48.766;8.674;2024-03-02T11:39:59;92768.00;;;14.90
10598;BMP180;5346;48.766;8.674;2024-03-02T11:42:33;92765.00;;;15.40
10598;BMP180;5346;48.766;8.674;2024-03-02T11:45:09;92765.00;;;16.50
10598;BMP180;5346;48.766;8.674;2024-03-02T11:47:51;92760.00;;;16.70
10598;BMP180;5346;48.766;8.674;2024-03-02T11:50:42;92756.00;;;17.50
10598;BMP180;5346;48.766;8.674;2024-03-02T11:53:17;92753.00;;;15.70
10598;BMP180;5346;48.766;8.674;2024-03-02T11:55:48;92753.00;;;17.40
10598;BMP180;5346;48.766;8.674;2024-03-02T11:58:17;92746.00;;;16.90
10598;BMP180;5346;48.766;8.674;2024-03-02T12:00:55;92750.00;;;14.50
10598;BMP180;5346;48.766;8.674;2024-03-02T12:03:33;92729.00;;;15.80
10598;BMP180;5346;48.766;8.674;2024-03-02T12:06:09;92736.00;;;15.70
10598;BMP180;5346;48.766;8.674;2024-03-02T12:08:43;92723.00;;;17.40
10598;BMP180;5346;48.766;8.674;2024-03-02T12:11:17;92730.00;;;17.40
10598;BMP180;5346;48.766;8.674;2024-03-02T12:13:54;92732.00;;;16.40
10598;BMP180;5346;48.766;8.674;2024-03-02T12:16:36;92738.00;;;16.20
10598;BMP180;5346;48.766;8.674;2024-03-02T12:19:12;92740.00;;;16.50
10598;BMP180;5346;48.766;8.674;2024-03-02T12:21:54;92728.00;;;17.60
10598;BMP180;5346;48.766;8.674;2024-03-02T12:24:23;92728.00;;;16.70
10598;BMP180;5346;48.766;8.674;2024-03-02T12:26:58;92722.00;;;17.60
10598;BMP180;5346;48.766;8.674;2024-03-02T12:29:26;92729.00;;;17.50
10598;BMP180;5346;48.766;8.674;2024-03-02T12:32:01;92719.00;;;16.60
10598;BMP180;5346;48.766;8.674;2024-03-02T12:34:31;92722.00;;;17.30
10598;BMP180;5346;48.766;8.674;2024-03-02T12:37:05;92720.00;;;17.20
10598;BMP180;5346;48.766;8.674;2024-03-02T12:39:39;92719.00;;;17.30
10598;BMP180;5346;48.766;8.674;2024-03-02T12:42:13;92728.00;;;14.90
10598;BMP180;5346;48.766;8.674;2024-03-02T12:44:41;92717.00;;;14.80
10598;BMP180;5346;48.766;8.674;2024-03-02T12:47:15;92726.00;;;15.30
10598;BMP180;5346;48.766;8.674;2024-03-02T12:49:50;92724.00;;;13.90
10598;BMP180;5346;48.766;8.674;2024-03-02T12:52:26;92725.00;;;15.10
10598;BMP180;5346;48.766;8.674;2024-03-02T12:54:57;92724.00;;;15.50
10598;BMP180;5346;48.766;8.674;2024-03-02T12:57:27;92717.00;;;15.00
10598;BMP180;5346;48.766;8.674;2024-03-02T13:00:05;92713.00;;;15.20
10598;BMP180;5346;48.766;8.674;2024-03-02T13:02:43;92703.00;;;15.10
10598;BMP180;5346;48.766;8.674;2024-03-02T13:05:16;92705.00;;;15.60
10598;BMP180;5346;48.766;8.674;2024-03-02T13:07:46;92698.00;;;16.20
10598;BMP180;5346;48.766;8.674;2024-03-02T13:10:20;92693.00;;;17.00
10598;BMP180;5346;48.766;8.674;2024-03-02T13:12:56;92689.00;;;16.30
10598;BMP180;5346;48.766;8.674;2024-03-02T13:15:46;92697.00;;;16.00
10598;BMP180;5346;48.766;8.674;2024-03-02T13:18:21;92689.00;;;17.60
10598;BMP180;5346;48.766;8.674;2024-03-02T13:20:56;92685.00;;;16.50
10598;BMP180;5346;48.766;8.674;2024-03-02T13:23:30;92694.00;;;17.20
10598;BMP180;5346;48.766;8.674;2024-03-02T13:25:58;92701.00;;;17.10
10598;BMP180;5346;48.766;8.674;2024-03-02T13:28:32;92695.00;;;15.80
10598;BMP180;5346;48.766;8.674;2024-03-02T13:31:07;92685.00;;;15.90
10598;BMP180;5346;48.766;8.674;2024-03-02T13:33:35;92689.00;;;16.90
10598;BMP180;5346;48.766;8.674;2024-03-02T13:36:09;92696.00;;;16.30
10598;BMP180;5346;48.766;8.674;2024-03-02T13:38:43;92704.00;;;15.10
10598;BMP180;5346;48.766;8.674;2024-03-02T13:41:17;92706.00;;;14.50
10598;BMP180;5346;48.766;8.674;2024-03-02T13:43:51;92710.00;;;14.20
10598;BMP180;5346;48.766;8.674;2024-03-02T13:46:25;92712.00;;;14.20
10598;BMP180;5346;48.766;8.674;2024-03-02T13:48:59;92706.00;;;14.70
10598;BMP180;5346;48.766;8.674;2024-03-02T13:51:27;92705.00;;;14.60
10598;BMP180;5346;48.766;8.674;2024-03-02T13:54:01;92702.00;;;14.50
10598;BMP180;5346;48.766;8.674;2024-03-02T13:56:30;92694.00;;;14.50
10598;BMP180;5346;48.766;8.674;2024-03-02T13:59:05;92693.00;;;15.10
10598;BMP180;5346;48.766;8.674;2024-03-02T14:01:39;92693.00;;;15.40
10598;BMP180;5346;48.766;8.674;2024-03-02T14:04:15;92688.00;;;16.10
10598;BMP180;5346;48.766;8.674;2024-03-02T14:06:43;92687.00;;;15.60
10598;BMP180;5346;48.766;8.674;2024-03-02T14:09:17;92697.00;;;15.50
10598;BMP180;5346;48.766;8.674;2024-03-02T14:11:50;92689.00;;;14.40
10598;BMP180;5346;48.766;8.674;2024-03-02T14:14:27;92703.00;;;13.60
10598;BMP180;5346;48.766;8.674;2024-03-02T14:17:08;92695.00;;;14.20
10598;BMP180;5346;48.766;8.674;2024-03-02T14:19:49;92694.00;;;13.60
10598;BMP180;5346;48.766;8.674;2024-03-02T14:22:23;92692.00;;;14.00
10598;BMP180;5346;48.766;8.674;2024-03-02T14:24:57;92680.00;;;14.10
10598;BMP180;5346;48.766;8.674;2024-03-02T14:27:31;92688.00;;;14.00
10598;BMP180;5346;48.766;8.674;2024-03-02T14:30:19;92687.00;;;14.70
10598;BMP180;5346;48.766;8.674;2024-03-02T14:32:53;92683.00;;;14.90
10598;BMP180;5346;48.766;8.674;2024-03-02T14:35:27;92674.00;;;15.60
10598;BMP180;5346;48.766;8.674;2024-03-02T14:37:56;92672.00;;;14.80
10598;BMP180;5346;48.766;8.674;2024-03-02T14:40:31;92671.00;;;14.90
10598;BMP180;5346;48.766;8.674;2024-03-02T14:42:59;92675.00;;;13.10
10598;BMP180;5346;48.766;8.674;2024-03-02T14:45:33;92670.00;;;13.40
10598;BMP180;5346;48.766;8.674;2024-03-02T14:48:01;92673.00;;;13.20
10598;BMP180;5346;48.766;8.674;2024-03-02T14:50:35;92672.00;;;12.40
10598;BMP180;5346;48.766;8.674;2024-03-02T14:53:03;92669.00;;;12.10
10598;BMP180;5346;48.766;8.674;2024-03-02T14:55:40;92671.00;;;12.50
10598;BMP180;5346;48.766;8.674;2024-03-02T14:58:14;92668.00;;;12.70
10598;BMP180;5346;48.766;8.674;2024-03-02T15:00:49;92668.00;;;12.20
10598;BMP180;5346;48.766;8.674;2024-03-02T15:03:17;92663.00;;;12.50
10598;BMP180;5346;48.766;8.674;2024-03-02T15:05:52;92663.00;;;12.60
10598;BMP180;5346;48.766;8.674;2024-03-02T15:08:27;92658.00;;;12.60
10598;BMP180;5346;48.766;8.674;2024-03-02T15:11:01;92649.00;;;12.60